Indian Mills, New Jersey
Current Conditions -  °F | °C
As of 5:54 PM on Wednesday 22 Oct 2014 (Local Time) from KVAY Reporting Station
Light Rain Light Rain  
Wind Chill: 54°   Ceiling: 2300
Heat Index: 54°   Visibility: 10mi
Dew Point: 49°   Wind: 16mph
Humidity: 83%   Direction: 350°N
Pressure: 29.82"   Gusts: NA
Location:  39.7955°N, 74.6301°W
Report Text: KVAY 222154Z AUTO 35014KT 10SM -RA OVC023 12/09 A2982 RMK AO2 RAB53 SLP097 P0000 T01220094
Loading
Personal Weather Stations






























Interactive Weather Map New forecast layout! Learn more

10-Day Weather Forecast

Advertisements
Track Severe Weather on mobile